Time;durP1;ratioP1;P1;durP2;ratioP2;P2;SDS_P1;SDS_P2;PMS_P1;PMS_P2;Temp;Humidity;BMP_temperature;BMP_pressure;BME280_temperature;BME280_humidity;BME280_pressure;Samples;Min_cycle;Max_cycle;Signal;HPM_P1;HPM_P2
2024/01/12 00:01:52;;;;;;;68.32;34.33;;;1.90;99.90;;;;;;5000486;28;20320;-76
2024/01/12 00:04:19;;;;;;;76.78;32.55;;;1.90;99.90;;;;;;5001643;28;20210;-75
2024/01/12 00:06:48;;;;;;;88.13;36.90;;;1.90;99.90;;;;;;5002375;28;20201;-75
2024/01/12 00:09:16;;;;;;;115.95;38.90;;;1.90;99.90;;;;;;4994650;28;20700;-74
2024/01/12 00:11:43;;;;;;;98.47;34.35;;;1.90;99.90;;;;;;5002985;28;20217;-75
2024/01/12 00:14:10;;;;;;;60.63;32.22;;;1.80;99.90;;;;;;5005892;28;20259;-74
2024/01/12 00:16:37;;;;;;;101.78;42.30;;;1.80;99.90;;;;;;5002285;28;20246;-76
2024/01/12 00:19:05;;;;;;;88.55;36.92;;;1.90;99.90;;;;;;4994375;28;20206;-76
2024/01/12 00:21:32;;;;;;;91.95;36.53;;;1.90;99.90;;;;;;5001239;28;20226;-76
2024/01/12 00:24:00;;;;;;;91.45;33.55;;;1.90;99.90;;;;;;5000862;28;20222;-75
2024/01/12 00:26:27;;;;;;;163.02;47.00;;;1.90;99.90;;;;;;5005443;28;20209;-75
2024/01/12 00:28:54;;;;;;;102.70;38.03;;;1.90;99.90;;;;;;5003906;28;20205;-74
2024/01/12 00:31:21;;;;;;;125.03;42.67;;;1.80;99.90;;;;;;5001326;28;20252;-75
2024/01/12 00:33:47;;;;;;;97.00;34.38;;;1.90;99.90;;;;;;4996419;28;20273;-75
2024/01/12 00:36:14;;;;;;;116.80;33.40;;;1.80;99.90;;;;;;4998533;28;20696;-75
2024/01/12 00:38:42;;;;;;;114.35;32.15;;;1.90;99.90;;;;;;4998219;28;20928;-75
2024/01/12 00:41:10;;;;;;;100.63;32.85;;;1.90;99.90;;;;;;4994903;28;20210;-75
2024/01/12 00:43:38;;;;;;;141.25;43.67;;;1.90;99.90;;;;;;4995128;28;20244;-74
2024/01/12 00:46:06;;;;;;;89.00;33.03;;;1.90;99.90;;;;;;4996693;28;20205;-74
2024/01/12 00:48:33;;;;;;;124.43;41.97;;;1.80;99.90;;;;;;5006051;28;20206;-75
2024/01/12 00:51:00;;;;;;;74.20;33.83;;;1.90;99.90;;;;;;4998755;28;20202;-74
2024/01/12 00:53:26;;;;;;;118.78;39.05;;;1.80;99.90;;;;;;4994519;28;20751;-74
2024/01/12 00:55:54;;;;;;;135.30;42.28;;;1.90;99.90;;;;;;4996360;28;20699;-76
2024/01/12 00:58:22;;;;;;;110.68;39.15;;;1.90;99.90;;;;;;4996507;28;20210;-75
2024/01/12 01:00:51;;;;;;;84.97;31.63;;;1.90;99.90;;;;;;4999412;28;20207;-75
2024/01/12 01:03:18;;;;;;;117.88;38.53;;;2.00;99.90;;;;;;4992919;28;20693;-74
2024/01/12 01:05:45;;;;;;;91.65;35.78;;;2.00;99.90;;;;;;4996275;28;20206;-76
2024/01/12 01:08:12;;;;;;;137.18;41.03;;;2.00;99.90;;;;;;5006995;28;20584;-77
2024/01/12 01:10:39;;;;;;;117.43;37.90;;;1.90;99.90;;;;;;4996314;28;20264;-75
2024/01/12 01:13:06;;;;;;;115.95;38.88;;;2.00;99.90;;;;;;5001877;28;20241;-75
2024/01/12 01:15:35;;;;;;;132.40;35.15;;;2.00;99.90;;;;;;5000446;28;20223;-76
2024/01/12 01:18:02;;;;;;;158.60;47.33;;;2.00;99.90;;;;;;4997838;28;20212;-76
2024/01/12 01:20:29;;;;;;;99.28;34.42;;;2.00;99.90;;;;;;5005070;28;20202;-75
2024/01/12 01:23:12;;;;;;;120.80;39.35;;;2.00;99.90;;;;;;4999228;28;20587;-75
2024/01/12 01:25:39;;;;;;;183.02;45.45;;;2.00;99.90;;;;;;4999033;28;20205;-75
2024/01/12 01:28:06;;;;;;;82.18;36.47;;;2.00;99.90;;;;;;5003337;28;20214;-75
2024/01/12 01:30:44;;;;;;;134.40;38.67;;;2.00;99.90;;;;;;5005861;28;20205;-76
2024/01/12 01:33:11;;;;;;;122.30;38.03;;;2.00;99.90;;;;;;5020160;28;20256;-76
2024/01/12 01:35:38;;;;;;;161.02;43.10;;;2.00;99.90;;;;;;5014519;28;20225;-75
2024/01/12 01:38:25;;;;;;;212.27;51.22;;;2.00;99.90;;;;;;5021055;28;20648;-76
2024/01/12 01:40:52;;;;;;;129.48;39.55;;;2.10;99.90;;;;;;5009966;28;20213;-76
2024/01/12 01:43:21;;;;;;;149.57;39.13;;;2.10;99.90;;;;;;5003945;28;20230;-76
2024/01/12 01:45:49;;;;;;;101.15;35.15;;;2.10;99.90;;;;;;5004535;28;20214;-76
2024/01/12 01:48:17;;;;;;;89.95;37.05;;;2.10;99.90;;;;;;5003056;28;20210;-76
2024/01/12 01:50:44;;;;;;;138.43;38.35;;;2.10;99.90;;;;;;4999321;28;20208;-75
2024/01/12 01:53:11;;;;;;;78.20;32.38;;;2.10;99.90;;;;;;5001434;28;20704;-75
2024/01/12 01:55:38;;;;;;;64.63;29.40;;;2.20;99.90;;;;;;5004029;28;20206;-75
2024/01/12 01:58:08;;;;;;;202.30;47.22;;;2.10;99.90;;;;;;5005113;28;20210;-75
2024/01/12 02:00:35;;;;;;;159.60;42.22;;;2.10;99.90;;;;;;5002006;28;20264;-74
2024/01/12 02:03:04;;;;;;;118.15;33.63;;;2.10;99.90;;;;;;5009513;28;20283;-75
2024/01/12 02:05:32;;;;;;;99.05;32.50;;;2.10;99.90;;;;;;5000381;28;20264;-75
2024/01/12 02:07:59;;;;;;;78.55;27.98;;;2.10;99.90;;;;;;4998222;28;20731;-75
2024/01/12 02:10:26;;;;;;;110.50;34.78;;;2.10;99.90;;;;;;5000934;28;20362;-75
2024/01/12 02:12:54;;;;;;;97.20;33.78;;;2.20;99.90;;;;;;4997151;28;20222;-74
2024/01/12 02:15:23;;;;;;;76.95;29.98;;;2.20;99.90;;;;;;4996491;28;20699;-74
2024/01/12 02:17:50;;;;;;;76.07;30.15;;;2.20;99.90;;;;;;4996375;28;20202;-75
2024/01/12 02:20:19;;;;;;;74.63;27.42;;;2.20;99.90;;;;;;4995893;28;20206;-74
2024/01/12 02:22:47;;;;;;;143.93;38.47;;;2.20;99.90;;;;;;4999141;28;20221;-74
2024/01/12 02:25:15;;;;;;;122.75;38.20;;;2.20;99.90;;;;;;4999965;28;20269;-75
2024/01/12 02:27:43;;;;;;;135.73;39.30;;;2.20;99.90;;;;;;5002522;28;20661;-74
2024/01/12 02:30:11;;;;;;;109.55;36.08;;;2.20;99.90;;;;;;5003866;28;20559;-75
2024/01/12 02:32:38;;;;;;;131.60;39.03;;;2.20;99.90;;;;;;5004985;28;20229;-75
2024/01/12 02:35:07;;;;;;;105.35;40.15;;;2.20;99.90;;;;;;5003223;28;20273;-75
2024/01/12 02:37:34;;;;;;;87.68;35.00;;;2.10;99.90;;;;;;5006856;28;20209;-75
2024/01/12 02:40:03;;;;;;;90.13;36.00;;;2.10;99.90;;;;;;5005693;28;20268;-75
2024/01/12 02:42:30;;;;;;;96.07;34.58;;;2.10;99.90;;;;;;4999281;28;20229;-75
2024/01/12 02:44:57;;;;;;;108.55;42.58;;;2.20;99.90;;;;;;5005550;28;20271;-75
2024/01/12 02:47:25;;;;;;;243.82;61.35;;;2.10;99.90;;;;;;5001029;28;20206;-75
2024/01/12 02:49:52;;;;;;;103.85;41.05;;;2.00;99.90;;;;;;5005607;28;20215;-76
2024/01/12 02:52:19;;;;;;;108.50;44.13;;;1.90;99.90;;;;;;5004246;28;20265;-74
2024/01/12 02:54:46;;;;;;;129.55;43.30;;;1.80;99.90;;;;;;5011127;28;20283;-75
2024/01/12 02:57:15;;;;;;;91.60;38.22;;;1.90;99.90;;;;;;5003360;28;20210;-76
2024/01/12 02:59:42;;;;;;;69.70;31.58;;;1.80;99.90;;;;;;5000244;28;20296;-75
2024/01/12 03:02:14;;;;;;;64.47;30.63;;;1.70;99.90;;;;;;5008966;28;20284;-75
2024/01/12 03:04:41;;;;;;;64.78;27.35;;;1.60;99.90;;;;;;4997609;28;20206;-76
2024/01/12 03:07:08;;;;;;;72.45;29.20;;;1.70;99.90;;;;;;4998507;28;20256;-76
2024/01/12 03:09:35;;;;;;;51.53;25.55;;;1.60;99.90;;;;;;4998215;28;20276;-75
2024/01/12 03:12:02;;;;;;;47.08;24.13;;;1.70;99.90;;;;;;4998659;28;20257;-76
2024/01/12 03:14:32;;;;;;;45.72;20.35;;;1.70;99.90;;;;;;5005589;28;20203;-76
2024/01/12 03:16:59;;;;;;;46.45;18.27;;;1.70;99.90;;;;;;5007736;28;20588;-74
2024/01/12 03:19:26;;;;;;;37.70;17.45;;;1.70;99.90;;;;;;5000928;28;20260;-76
2024/01/12 03:21:52;;;;;;;39.03;18.50;;;1.80;99.90;;;;;;5009335;28;20230;-75
2024/01/12 03:24:19;;;;;;;34.13;15.82;;;1.70;99.90;;;;;;4996921;28;20214;-75
2024/01/12 03:26:47;;;;;;;34.28;16.23;;;1.70;99.90;;;;;;4999488;28;20202;-75
2024/01/12 03:29:14;;;;;;;34.55;17.30;;;1.70;99.90;;;;;;5009017;28;20193;-76
2024/01/12 03:31:43;;;;;;;33.10;15.63;;;1.70;99.90;;;;;;4999097;28;20240;-75
2024/01/12 03:34:11;;;;;;;44.03;18.23;;;1.70;99.90;;;;;;5004314;28;20209;-76
2024/01/12 03:36:38;;;;;;;49.42;17.17;;;1.70;99.90;;;;;;5012109;28;20209;-75
2024/01/12 03:39:05;;;;;;;37.83;17.65;;;1.60;99.90;;;;;;4996648;28;20202;-75
2024/01/12 03:41:32;;;;;;;43.58;17.38;;;1.60;99.90;;;;;;5005698;28;20221;-75
2024/01/12 03:43:59;;;;;;;44.60;17.65;;;1.70;99.90;;;;;;5007271;28;20206;-75
2024/01/12 03:46:26;;;;;;;37.70;18.85;;;1.70;99.90;;;;;;5011372;28;20213;-75
2024/01/12 03:49:12;;;;;;;40.92;18.98;;;1.60;99.90;;;;;;5013325;28;20209;-74
2024/01/12 03:51:44;;;;;;;50.58;22.77;;;1.70;99.90;;;;;;5019306;28;20233;-74
2024/01/12 03:54:11;;;;;;;32.70;19.55;;;1.70;99.90;;;;;;5018575;28;20202;-74
2024/01/12 03:56:38;;;;;;;38.40;18.50;;;1.80;99.90;;;;;;5006089;28;20198;-75
2024/01/12 03:59:12;;;;;;;44.03;18.33;;;1.70;99.90;;;;;;5003043;28;20209;-76
2024/01/12 04:01:43;;;;;;;37.80;18.70;;;1.70;99.90;;;;;;4998942;28;20250;-75
2024/01/12 04:04:12;;;;;;;41.38;18.48;;;1.70;99.90;;;;;;5007023;28;20627;-74
2024/01/12 04:06:56;;;;;;;52.42;22.58;;;1.60;99.90;;;;;;5003636;28;20631;-75
2024/01/12 04:09:23;;;;;;;31.80;18.33;;;1.60;99.90;;;;;;5013788;28;20197;-75
2024/01/12 04:11:50;;;;;;;38.00;19.52;;;1.70;99.90;;;;;;5006606;28;20226;-75
2024/01/12 04:14:17;;;;;;;44.45;20.92;;;1.70;99.90;;;;;;5018003;28;20209;-75
2024/01/12 04:16:44;;;;;;;46.28;21.05;;;1.70;99.90;;;;;;5012859;28;20201;-76
2024/01/12 04:19:12;;;;;;;55.20;23.45;;;1.60;99.90;;;;;;5014249;28;20214;-74
2024/01/12 04:21:40;;;;;;;46.13;22.20;;;1.60;99.90;;;;;;5002159;28;20225;-76
2024/01/12 04:24:07;;;;;;;64.97;24.77;;;1.70;99.90;;;;;;4995343;28;20715;-74
2024/01/12 04:26:34;;;;;;;50.22;24.20;;;1.70;99.90;;;;;;5009749;28;20573;-76
2024/01/12 04:29:01;;;;;;;63.08;26.33;;;1.70;99.90;;;;;;5003599;28;20245;-76
2024/01/12 04:31:28;;;;;;;66.80;25.33;;;1.60;99.90;;;;;;5007520;28;20750;-76
2024/01/12 04:33:55;;;;;;;43.97;23.38;;;1.50;99.90;;;;;;4994981;28;20209;-75
2024/01/12 04:36:24;;;;;;;47.72;22.52;;;1.50;99.90;;;;;;5000554;28;20260;-74
2024/01/12 04:38:51;;;;;;;67.13;27.08;;;1.60;99.90;;;;;;4993902;28;20614;-75
2024/01/12 04:41:18;;;;;;;52.13;25.00;;;1.60;99.90;;;;;;4997453;28;20201;-75
2024/01/12 04:43:45;;;;;;;44.60;22.13;;;1.60;99.90;;;;;;4997738;28;20221;-75
2024/01/12 04:46:12;;;;;;;60.83;27.90;;;1.60;99.90;;;;;;4993651;28;20206;-75
2024/01/12 04:48:39;;;;;;;77.25;29.00;;;1.50;99.90;;;;;;5002161;28;20206;-75
2024/01/12 04:51:06;;;;;;;131.23;32.30;;;1.50;99.90;;;;;;5001897;28;20198;-75
2024/01/12 04:53:34;;;;;;;69.32;26.23;;;1.30;99.90;;;;;;5003744;28;20243;-75
2024/01/12 04:56:02;;;;;;;82.88;28.30;;;1.40;99.90;;;;;;5000131;28;20205;-75
2024/01/12 04:58:29;;;;;;;83.68;31.52;;;1.20;99.90;;;;;;4998661;28;20202;-76
2024/01/12 05:00:56;;;;;;;55.75;28.75;;;1.10;99.90;;;;;;4999663;28;20217;-75
2024/01/12 05:03:24;;;;;;;63.25;29.83;;;1.20;99.90;;;;;;5001292;28;20226;-75
2024/01/12 05:05:51;;;;;;;61.65;25.90;;;1.20;99.90;;;;;;4993042;28;20349;-76
2024/01/12 05:08:18;;;;;;;83.03;28.38;;;1.30;99.90;;;;;;4993402;28;20589;-74
2024/01/12 05:10:46;;;;;;;53.92;27.70;;;1.40;99.90;;;;;;4994818;28;20619;-76
2024/01/12 05:13:13;;;;;;;50.08;24.83;;;1.40;99.90;;;;;;5003420;28;20225;-76
2024/01/12 05:15:40;;;;;;;74.65;27.00;;;1.50;99.90;;;;;;4996155;28;20210;-75
2024/01/12 05:18:07;;;;;;;47.50;24.90;;;1.50;99.90;;;;;;4996394;28;20209;-75
2024/01/12 05:20:34;;;;;;;66.78;25.73;;;1.50;99.90;;;;;;4996086;28;20554;-77
2024/01/12 05:23:03;;;;;;;57.85;24.60;;;1.60;99.90;;;;;;4995545;28;20308;-75
2024/01/12 05:25:30;;;;;;;54.17;25.85;;;1.60;99.90;;;;;;4997740;28;20217;-75
2024/01/12 05:27:59;;;;;;;56.50;24.85;;;1.60;99.90;;;;;;4997305;28;20240;-75
2024/01/12 05:30:26;;;;;;;45.20;21.65;;;1.60;99.90;;;;;;4998551;28;20232;-75
2024/01/12 05:32:53;;;;;;;45.83;22.08;;;1.70;99.90;;;;;;5000627;28;20221;-76
2024/01/12 05:35:20;;;;;;;42.83;22.35;;;1.70;99.90;;;;;;4992926;28;20190;-75
2024/01/12 05:37:48;;;;;;;51.78;22.83;;;1.70;99.90;;;;;;5001869;28;20198;-74
2024/01/12 05:40:15;;;;;;;51.13;23.73;;;1.60;99.90;;;;;;4998046;28;20294;-76
2024/01/12 05:42:42;;;;;;;45.42;22.27;;;1.50;99.90;;;;;;5001428;28;20229;-75
2024/01/12 05:45:11;;;;;;;38.92;19.38;;;1.50;99.90;;;;;;5000183;28;20324;-75
2024/01/12 05:47:39;;;;;;;41.45;20.38;;;1.60;99.90;;;;;;5000302;28;20281;-75
2024/01/12 05:50:07;;;;;;;32.28;17.58;;;1.60;99.90;;;;;;5001462;28;20229;-77
2024/01/12 05:52:35;;;;;;;29.17;16.77;;;1.60;99.90;;;;;;5001679;28;20728;-76
2024/01/12 05:55:03;;;;;;;26.83;13.95;;;1.60;99.90;;;;;;4997277;28;20198;-76
2024/01/12 05:57:31;;;;;;;24.50;14.35;;;1.50;99.90;;;;;;5011737;28;20232;-77
2024/01/12 05:59:59;;;;;;;27.92;16.70;;;1.60;99.90;;;;;;4995653;28;20202;-76
2024/01/12 06:02:27;;;;;;;24.15;12.73;;;1.50;99.90;;;;;;4999160;28;20309;-76
2024/01/12 06:04:54;;;;;;;31.58;11.95;;;1.50;99.90;;;;;;4995504;28;20217;-76
2024/01/12 06:07:21;;;;;;;30.90;12.32;;;1.60;99.90;;;;;;5003304;28;20687;-75
2024/01/12 06:09:48;;;;;;;24.40;13.05;;;1.50;99.90;;;;;;4996968;28;20253;-75
2024/01/12 06:12:15;;;;;;;23.25;10.75;;;1.50;99.90;;;;;;4996435;28;20275;-76
2024/01/12 06:14:43;;;;;;;17.65;10.23;;;1.60;99.90;;;;;;5005086;28;20232;-76
2024/01/12 06:17:10;;;;;;;19.25;11.43;;;1.60;99.90;;;;;;4994601;28;20241;-73
2024/01/12 06:19:38;;;;;;;26.85;11.40;;;1.60;99.90;;;;;;4996405;28;20209;-75
2024/01/12 06:22:05;;;;;;;24.35;12.80;;;1.70;99.90;;;;;;5006503;28;20581;-75
2024/01/12 06:24:32;;;;;;;29.88;14.23;;;1.70;99.90;;;;;;4996078;28;20268;-75
2024/01/12 06:27:01;;;;;;;23.25;13.90;;;1.70;99.90;;;;;;5000836;28;20265;-75
2024/01/12 06:29:28;;;;;;;32.28;14.02;;;1.70;99.90;;;;;;4996338;28;20681;-74
2024/01/12 06:31:55;;;;;;;25.02;11.80;;;1.70;99.90;;;;;;5001834;28;20225;-75
2024/01/12 06:34:22;;;;;;;23.35;10.40;;;1.70;99.90;;;;;;5001545;28;20202;-75
2024/01/12 06:36:50;;;;;;;22.83;10.15;;;1.80;99.90;;;;;;4996775;28;20312;-75
2024/01/12 06:39:18;;;;;;;30.75;14.45;;;1.90;99.90;;;;;;5007946;28;20268;-74
2024/01/12 06:41:46;;;;;;;24.63;11.20;;;1.80;99.90;;;;;;4998063;28;20226;-73
2024/01/12 06:44:13;;;;;;;20.88;12.60;;;1.90;99.90;;;;;;5001778;28;20544;-72
2024/01/12 06:46:43;;;;;;;20.85;10.65;;;2.00;99.90;;;;;;5008055;28;20209;-74
2024/01/12 06:49:10;;;;;;;27.08;11.25;;;2.10;99.90;;;;;;5000743;28;20244;-74
2024/01/12 06:51:37;;;;;;;27.00;12.80;;;2.10;99.90;;;;;;5007274;28;20255;-75
2024/01/12 06:54:06;;;;;;;27.33;11.15;;;2.10;99.90;;;;;;5003792;28;20198;-74
2024/01/12 06:56:37;;;;;;;39.88;15.57;;;2.10;99.90;;;;;;5002076;28;20280;-75
2024/01/12 06:59:05;;;;;;;54.95;15.77;;;2.10;99.90;;;;;;5003489;28;20273;-75
2024/01/12 07:01:32;;;;;;;68.78;19.02;;;2.00;99.90;;;;;;4998354;28;20309;-74
2024/01/12 07:04:00;;;;;;;49.42;16.42;;;2.00;99.90;;;;;;5005524;28;20296;-74
2024/01/12 07:06:27;;;;;;;49.45;18.08;;;2.00;99.90;;;;;;5003289;28;20209;-74
2024/01/12 07:08:54;;;;;;;56.83;17.50;;;2.00;99.90;;;;;;4999690;28;20206;-73
2024/01/12 07:11:24;;;;;;;56.15;19.60;;;2.00;99.90;;;;;;5005756;28;20269;-74
2024/01/12 07:13:51;;;;;;;61.28;19.42;;;1.90;99.90;;;;;;4999029;28;20296;-74
2024/01/12 07:16:18;;;;;;;52.28;16.75;;;1.90;99.90;;;;;;4995706;28;20686;-74
2024/01/12 07:18:45;;;;;;;48.80;18.27;;;2.00;99.90;;;;;;5001560;28;20213;-74
2024/01/12 07:21:12;;;;;;;89.80;23.48;;;2.00;99.90;;;;;;5003877;28;20238;-73
2024/01/12 07:23:39;;;;;;;31.88;16.27;;;2.10;99.90;;;;;;5009728;28;20206;-73
2024/01/12 07:26:06;;;;;;;47.20;18.85;;;2.10;99.90;;;;;;5008786;28;20257;-73
2024/01/12 07:28:35;;;;;;;48.38;18.63;;;2.20;99.90;;;;;;4999107;28;20572;-72
2024/01/12 07:31:01;;;;;;;65.50;23.90;;;2.20;99.90;;;;;;4997769;28;20273;-71
2024/01/12 07:33:28;;;;;;;58.08;20.23;;;2.20;99.90;;;;;;5003594;28;20217;-76
2024/01/12 07:35:55;;;;;;;89.32;24.88;;;2.10;99.90;;;;;;5000081;28;20213;-73
2024/01/12 07:38:22;;;;;;;73.90;23.40;;;2.10;99.90;;;;;;4999987;28;20730;-74
2024/01/12 07:40:49;;;;;;;59.70;24.17;;;2.10;99.90;;;;;;5005571;28;20201;-73
2024/01/12 07:43:17;;;;;;;80.65;26.92;;;2.10;99.90;;;;;;5008355;28;20277;-73
2024/01/12 07:45:45;;;;;;;120.80;32.17;;;2.10;99.90;;;;;;5012388;28;20216;-71
2024/01/12 07:48:12;;;;;;;106.07;29.10;;;2.10;99.90;;;;;;5012601;28;20211;-71
2024/01/12 07:50:39;;;;;;;57.00;23.52;;;2.10;99.90;;;;;;5012020;28;20202;-68
2024/01/12 07:53:06;;;;;;;79.43;28.80;;;2.20;99.90;;;;;;5006076;28;20763;-72
2024/01/12 07:55:33;;;;;;;78.18;28.70;;;2.30;99.90;;;;;;4997289;28;20241;-69
2024/01/12 07:58:00;;;;;;;96.07;29.30;;;2.20;99.90;;;;;;5004507;28;20710;-71
2024/01/12 08:00:27;;;;;;;87.70;29.02;;;2.20;99.90;;;;;;5000115;28;20612;-71
2024/01/12 08:02:56;;;;;;;77.40;28.80;;;2.20;99.90;;;;;;5000496;28;20234;-70
2024/01/12 08:05:23;;;;;;;98.60;30.95;;;2.20;99.90;;;;;;4996440;28;20268;-71
2024/01/12 08:07:50;;;;;;;101.68;31.85;;;2.20;99.90;;;;;;4994865;28;20744;-70
2024/01/12 08:10:17;;;;;;;59.63;26.65;;;2.30;99.90;;;;;;4999483;28;20447;-70
2024/01/12 08:12:45;;;;;;;110.13;34.42;;;2.30;99.90;;;;;;4997943;28;20602;-71
2024/01/12 08:15:12;;;;;;;79.70;28.92;;;2.40;99.90;;;;;;4999735;28;20205;-72
2024/01/12 08:17:38;;;;;;;87.82;30.63;;;2.30;99.90;;;;;;4994809;28;20210;-71
2024/01/12 08:20:08;;;;;;;114.57;33.57;;;2.30;99.90;;;;;;4997520;28;20260;-70
2024/01/12 08:22:35;;;;;;;106.70;32.53;;;2.30;99.90;;;;;;5001494;28;20552;-71
2024/01/12 08:25:02;;;;;;;65.72;27.33;;;2.30;99.90;;;;;;5002393;28;20672;-71
2024/01/12 08:27:29;;;;;;;65.60;26.17;;;2.40;99.90;;;;;;5004360;28;20578;-71
2024/01/12 08:29:56;;;;;;;63.63;24.98;;;2.40;99.90;;;;;;4999410;28;20234;-70
2024/01/12 08:32:23;;;;;;;58.20;25.10;;;2.60;99.90;;;;;;4998190;28;20226;-69
2024/01/12 08:34:51;;;;;;;61.40;28.20;;;2.50;99.90;;;;;;5007530;28;20201;-71
2024/01/12 08:37:19;;;;;;;72.20;25.88;;;2.50;99.90;;;;;;5004337;28;20202;-70
2024/01/12 08:39:46;;;;;;;61.63;26.85;;;2.50;99.90;;;;;;5002374;28;20643;-70
2024/01/12 08:42:14;;;;;;;52.28;23.40;;;2.50;99.90;;;;;;4994565;28;20218;-71
2024/01/12 08:44:41;;;;;;;59.97;25.85;;;2.60;99.90;;;;;;5003313;28;20209;-70
2024/01/12 08:47:08;;;;;;;57.10;24.00;;;2.70;99.90;;;;;;5000658;28;20206;-72
2024/01/12 08:49:35;;;;;;;75.25;27.33;;;2.60;99.90;;;;;;4997924;28;20264;-71
2024/01/12 08:52:02;;;;;;;71.45;24.15;;;2.60;99.90;;;;;;4996838;28;20312;-71
2024/01/12 08:54:30;;;;;;;68.18;28.98;;;2.60;99.90;;;;;;5001668;28;20205;-70
2024/01/12 08:56:57;;;;;;;52.72;25.67;;;2.70;99.90;;;;;;5000575;28;20209;-71
2024/01/12 08:59:25;;;;;;;55.47;26.27;;;2.70;99.90;;;;;;4998791;28;20638;-72
2024/01/12 09:01:52;;;;;;;58.05;25.65;;;2.80;99.90;;;;;;5001161;28;20245;-69
2024/01/12 09:04:19;;;;;;;43.42;20.95;;;2.80;99.90;;;;;;5010918;28;20621;-73
2024/01/12 09:06:46;;;;;;;51.25;23.48;;;2.90;99.90;;;;;;4995716;28;20292;-73
2024/01/12 09:09:13;;;;;;;57.42;23.60;;;2.90;99.90;;;;;;5000729;28;20627;-72
2024/01/12 09:11:41;;;;;;;49.88;22.17;;;3.00;99.90;;;;;;4999467;28;20253;-70
2024/01/12 09:14:08;;;;;;;34.45;19.88;;;3.10;99.90;;;;;;4993689;28;20234;-70
2024/01/12 09:16:35;;;;;;;42.65;21.48;;;3.10;99.90;;;;;;4993019;28;20646;-69
2024/01/12 09:19:02;;;;;;;38.08;20.50;;;3.10;99.90;;;;;;4992866;28;20309;-70
2024/01/12 09:21:30;;;;;;;37.55;21.15;;;3.10;99.90;;;;;;4992840;28;20253;-71
2024/01/12 09:23:57;;;;;;;43.38;20.45;;;3.00;99.90;;;;;;4992887;28;20241;-71
2024/01/12 09:26:24;;;;;;;46.47;23.20;;;3.10;99.90;;;;;;4997756;28;20217;-70
2024/01/12 09:28:52;;;;;;;41.65;21.77;;;3.10;99.90;;;;;;4996887;28;20234;-69
2024/01/12 09:31:19;;;;;;;55.78;21.73;;;3.10;99.90;;;;;;5000100;28;20206;-71
2024/01/12 09:33:46;;;;;;;44.53;21.67;;;3.10;99.90;;;;;;5001752;28;20233;-72
2024/01/12 09:36:13;;;;;;;47.97;21.88;;;3.20;99.90;;;;;;4992959;28;20198;-70
2024/01/12 09:38:40;;;;;;;56.20;26.15;;;3.20;99.90;;;;;;4992908;28;20238;-71
2024/01/12 09:41:09;;;;;;;63.85;26.13;;;3.10;99.90;;;;;;5002878;28;20205;-70
2024/01/12 09:43:37;;;;;;;62.17;25.27;;;3.20;99.90;;;;;;4997373;28;21181;-70
2024/01/12 09:46:08;;;;;;;57.00;29.30;;;3.20;99.90;;;;;;5005863;28;20268;-69
2024/01/12 09:48:36;;;;;;;51.50;24.08;;;3.20;99.90;;;;;;4992321;28;20209;-71
2024/01/12 09:51:06;;;;;;;57.17;27.83;;;3.30;99.90;;;;;;4991798;28;20669;-72
2024/01/12 09:53:33;;;;;;;59.08;28.50;;;3.40;99.90;;;;;;4999114;28;20238;-71
2024/01/12 09:56:00;;;;;;;58.42;28.27;;;3.40;99.90;;;;;;5010095;28;20580;-72
2024/01/12 09:58:27;;;;;;;62.05;26.58;;;3.50;99.90;;;;;;5005239;28;20252;-71
2024/01/12 10:00:55;;;;;;;47.53;22.20;;;3.50;99.90;;;;;;5002644;28;20236;-72
2024/01/12 10:03:25;;;;;;;62.78;26.92;;;3.60;99.90;;;;;;5005383;28;20221;-71
2024/01/12 10:05:52;;;;;;;62.15;28.75;;;3.60;99.90;;;;;;5008092;28;20233;-69
2024/01/12 10:08:19;;;;;;;55.42;26.50;;;3.70;99.90;;;;;;5023127;28;20198;-69
2024/01/12 10:10:46;;;;;;;52.63;25.02;;;3.70;99.90;;;;;;5014611;28;20212;-70
2024/01/12 10:13:16;;;;;;;42.90;22.45;;;3.70;99.90;;;;;;5015821;28;20272;-71
2024/01/12 10:15:43;;;;;;;56.92;27.10;;;3.70;99.90;;;;;;5005611;28;20202;-71
2024/01/12 10:18:10;;;;;;;57.75;26.02;;;3.70;99.90;;;;;;5004340;28;20354;-70
2024/01/12 10:20:38;;;;;;;43.90;24.45;;;3.60;99.90;;;;;;5002325;28;20288;-70
2024/01/12 10:23:05;;;;;;;57.75;26.08;;;3.60;99.90;;;;;;5000816;28;20226;-70
2024/01/12 10:25:32;;;;;;;53.67;27.80;;;3.70;99.90;;;;;;5006210;28;20316;-73
2024/01/12 10:27:59;;;;;;;57.65;27.80;;;3.70;99.90;;;;;;5011145;28;20286;-71
2024/01/12 10:30:28;;;;;;;54.78;24.00;;;3.80;99.90;;;;;;4996929;28;20288;-71
2024/01/12 10:32:55;;;;;;;48.40;25.48;;;3.80;99.90;;;;;;4999197;28;20222;-72
2024/01/12 10:35:22;;;;;;;51.33;24.50;;;3.70;99.90;;;;;;5006660;28;20221;-70
2024/01/12 10:37:50;;;;;;;50.25;26.65;;;3.70;99.90;;;;;;5000747;28;20203;-72
2024/01/12 10:40:18;;;;;;;47.33;23.42;;;3.70;99.90;;;;;;5002310;28;20205;-71
2024/01/12 10:42:49;;;;;;;56.70;28.67;;;3.80;99.90;;;;;;5007656;28;20249;-71
2024/01/12 10:45:22;;;;;;;41.75;25.15;;;3.70;99.90;;;;;;4998848;28;20222;-69
2024/01/12 10:48:01;;;;;;;51.90;25.50;;;3.90;99.90;;;;;;5004826;28;20288;-71
2024/01/12 10:50:30;;;;;;;50.55;27.15;;;4.00;99.90;;;;;;5006053;28;20229;-71
2024/01/12 10:53:06;;;;;;;47.72;26.27;;;4.10;99.90;;;;;;4994862;28;20313;-70
2024/01/12 10:55:35;;;;;;;42.10;23.65;;;4.10;99.90;;;;;;5000288;28;20228;-72
2024/01/12 10:58:03;;;;;;;46.20;27.05;;;4.20;99.90;;;;;;4996397;28;20288;-70
2024/01/12 11:00:32;;;;;;;54.58;27.55;;;4.30;99.90;;;;;;4996053;28;20284;-70
2024/01/12 11:03:01;;;;;;;47.55;25.63;;;4.10;99.90;;;;;;4995373;28;20266;-72
2024/01/12 11:05:29;;;;;;;48.22;26.60;;;4.10;99.90;;;;;;4999267;28;20706;-72
2024/01/12 11:08:01;;;;;;;51.17;25.52;;;4.10;99.90;;;;;;4996857;28;20708;-70
2024/01/12 11:10:30;;;;;;;53.10;27.33;;;4.00;99.90;;;;;;5002579;28;20225;-70
2024/01/12 11:12:57;;;;;;;45.15;24.35;;;4.00;99.90;;;;;;5003877;28;20237;-70
2024/01/12 11:15:24;;;;;;;40.60;25.48;;;4.10;99.90;;;;;;5002353;28;20198;-72
2024/01/12 11:17:51;;;;;;;55.72;27.63;;;4.10;99.90;;;;;;5006055;28;20625;-71
2024/01/12 11:20:20;;;;;;;45.00;26.75;;;4.00;99.90;;;;;;4995121;28;20256;-70
2024/01/12 11:22:48;;;;;;;45.47;24.27;;;4.00;99.90;;;;;;5004673;28;20240;-69
2024/01/12 11:25:19;;;;;;;33.97;20.05;;;4.00;99.90;;;;;;4995474;28;20312;-71
2024/01/12 11:27:49;;;;;;;44.15;24.95;;;4.10;99.90;;;;;;5001931;28;20206;-71
2024/01/12 11:30:18;;;;;;;55.10;25.38;;;4.10;99.90;;;;;;5009255;28;20234;-70
2024/01/12 11:32:45;;;;;;;36.47;22.58;;;4.10;99.90;;;;;;5010089;28;20233;-71
2024/01/12 11:35:14;;;;;;;38.72;22.27;;;4.10;99.90;;;;;;4998777;28;20582;-69
2024/01/12 11:37:43;;;;;;;55.38;24.25;;;4.10;99.90;;;;;;4998553;28;20202;-69
2024/01/12 11:40:12;;;;;;;43.97;22.90;;;4.10;99.90;;;;;;5004917;28;20256;-70
2024/01/12 11:42:41;;;;;;;45.50;19.80;;;4.10;99.90;;;;;;5004362;28;20221;-70
2024/01/12 11:45:10;;;;;;;30.25;18.83;;;4.20;99.90;;;;;;5007636;28;20205;-73
2024/01/12 11:47:39;;;;;;;33.25;18.05;;;4.20;99.90;;;;;;4994804;28;20241;-70
2024/01/12 11:50:08;;;;;;;30.67;19.67;;;4.40;99.90;;;;;;4997438;28;20241;-71
2024/01/12 11:52:36;;;;;;;33.80;20.08;;;4.40;99.90;;;;;;4993653;28;20731;-71
2024/01/12 11:55:03;;;;;;;40.22;19.00;;;4.40;99.90;;;;;;4995719;28;20214;-71
2024/01/12 11:57:30;;;;;;;32.85;17.80;;;4.30;99.90;;;;;;5000739;28;20296;-69
2024/01/12 11:59:59;;;;;;;28.15;15.65;;;4.30;99.90;;;;;;4997707;28;20261;-73
2024/01/12 12:02:26;;;;;;;33.97;17.13;;;4.40;99.90;;;;;;5010666;28;20545;-69
2024/01/12 12:04:54;;;;;;;36.03;17.83;;;4.40;99.90;;;;;;4997892;28;20206;-69
2024/01/12 12:07:26;;;;;;;34.47;18.15;;;4.50;99.90;;;;;;4997328;28;20233;-69
2024/01/12 12:09:53;;;;;;;43.03;18.15;;;4.50;99.90;;;;;;4994181;28;20305;-72
2024/01/12 12:12:20;;;;;;;40.65;18.60;;;4.50;99.90;;;;;;4997806;28;20241;-71
2024/01/12 12:15:04;;;;;;;41.85;17.90;;;4.50;99.90;;;;;;4995285;28;20202;-69
2024/01/12 12:17:31;;;;;;;30.05;18.50;;;4.50;99.90;;;;;;4995395;28;20305;-69
2024/01/12 12:19:59;;;;;;;34.33;17.85;;;4.50;99.90;;;;;;4996161;28;20209;-71
2024/01/12 12:22:26;;;;;;;33.65;16.73;;;4.50;99.90;;;;;;4992768;28;20274;-70
2024/01/12 12:24:53;;;;;;;33.47;17.25;;;4.60;99.90;;;;;;5002075;28;20748;-71
2024/01/12 12:27:21;;;;;;;19.83;12.85;;;4.60;99.90;;;;;;5006419;28;20245;-70
2024/01/12 12:29:48;;;;;;;41.17;18.70;;;4.70;99.90;;;;;;4999745;28;20202;-69
2024/01/12 12:32:17;;;;;;;30.88;16.02;;;4.70;99.90;;;;;;4996421;28;20312;-72
2024/01/12 12:34:44;;;;;;;34.35;13.40;;;4.70;99.90;;;;;;5005400;28;20213;-73
2024/01/12 12:37:14;;;;;;;25.63;13.65;;;4.70;99.90;;;;;;4993135;28;20301;-72
2024/01/12 12:39:41;;;;;;;29.00;14.60;;;4.70;99.90;;;;;;4995475;28;20250;-71